KGRD

Greenwood County Airport

Greenwood, South Carolina, USA
METAR KGRD 241156Z AUTO 20010KT 10SM BKN004 16/16 A3023 RMK AO2 SLP234 T01560156 10161 20144 56003
Observed Flight Rules
Feb-24 @ 11:56 UTC (28 minutes ago) Instrument Flight Rules
Wind Visibility Clouds
200° at 10 knots 10 miles
  • Broken at 400' AGL
Temperatures Readings
Current 16°C / 61°F
Dewpoint 16°C / 61°F
Humidity 100%
Altimeter 30.23" Hg
Pressure 1023.4 hPa
Elevation 185
METAR KGRD 241156Z AUTO 20010KT 10SM BKN004 16/16 A3023 RMK AO2 SLP234 T01560156 10161 20144 56003
Observed Flight Rules
Feb-24 @ 11:56 UTC
(28 minutes ago)
LIFR
Wind Visibility
200° at 10 knots 10 miles
Clouds
  • Broken at 400' AGL
Temperature Dewpoint
16°C / 61°F 16°C / 61°F
Humidity Altimeter Pressure
100% 30.23" Hg 1023.4 hPa